sensor_id;sensor_type;location;lat;lon;timestamp;pressure;altitude;pressure_sealevel;temperature;humidity
10712;BME280;5407;51.234;6.804;2023-12-07T00:01:04;101434.38;;;4.86;98.13
10712;BME280;5407;51.234;6.804;2023-12-07T00:03:31;101447.47;;;4.88;97.88
10712;BME280;5407;51.234;6.804;2023-12-07T00:05:58;101442.78;;;4.75;97.60
10712;BME280;5407;51.234;6.804;2023-12-07T00:08:27;101436.94;;;4.73;97.42
10712;BME280;5407;51.234;6.804;2023-12-07T00:10:53;101443.34;;;4.72;98.10
10712;BME280;5407;51.234;6.804;2023-12-07T00:13:20;101440.19;;;4.70;97.05
10712;BME280;5407;51.234;6.804;2023-12-07T00:15:47;101446.41;;;4.60;98.41
10712;BME280;5407;51.234;6.804;2023-12-07T00:18:14;101443.41;;;4.67;97.69
10712;BME280;5407;51.234;6.804;2023-12-07T00:20:41;101443.03;;;4.55;97.17
10712;BME280;5407;51.234;6.804;2023-12-07T00:23:08;101441.13;;;4.55;97.33
10712;BME280;5407;51.234;6.804;2023-12-07T00:25:37;101440.34;;;4.55;96.95
10712;BME280;5407;51.234;6.804;2023-12-07T00:28:03;101441.19;;;4.50;97.62
10712;BME280;5407;51.234;6.804;2023-12-07T00:30:30;101433.47;;;4.49;97.68
10712;BME280;5407;51.234;6.804;2023-12-07T00:32:57;101432.19;;;4.41;97.61
10712;BME280;5407;51.234;6.804;2023-12-07T00:35:24;101431.41;;;4.41;97.67
10712;BME280;5407;51.234;6.804;2023-12-07T00:37:54;101427.97;;;4.35;97.74
10712;BME280;5407;51.234;6.804;2023-12-07T00:40:22;101430.59;;;4.40;98.72
10712;BME280;5407;51.234;6.804;2023-12-07T00:42:51;101432.44;;;4.45;98.00
10712;BME280;5407;51.234;6.804;2023-12-07T00:45:18;101433.47;;;4.49;97.91
10712;BME280;5407;51.234;6.804;2023-12-07T00:47:45;101430.16;;;4.57;96.96
10712;BME280;5407;51.234;6.804;2023-12-07T00:50:47;101437.09;;;4.58;96.65
10712;BME280;5407;51.234;6.804;2023-12-07T00:53:14;101433.84;;;4.37;96.37
10712;BME280;5407;51.234;6.804;2023-12-07T00:55:41;101433.22;;;4.45;96.91
10712;BME280;5407;51.234;6.804;2023-12-07T00:58:09;101439.06;;;4.47;96.55
10712;BME280;5407;51.234;6.804;2023-12-07T01:00:36;101438.38;;;4.37;96.97
10712;BME280;5407;51.234;6.804;2023-12-07T01:03:03;101442.56;;;4.48;96.87
10712;BME280;5407;51.234;6.804;2023-12-07T01:05:30;101437.28;;;4.43;97.60
10712;BME280;5407;51.234;6.804;2023-12-07T01:07:57;101435.06;;;4.50;96.78
10712;BME280;5407;51.234;6.804;2023-12-07T01:10:24;101442.00;;;4.51;97.38
10712;BME280;5407;51.234;6.804;2023-12-07T01:12:51;101438.81;;;4.49;97.21
10712;BME280;5407;51.234;6.804;2023-12-07T01:15:19;101439.97;;;4.38;97.10
10712;BME280;5407;51.234;6.804;2023-12-07T01:17:46;101444.72;;;4.46;97.67
10712;BME280;5407;51.234;6.804;2023-12-07T01:20:13;101447.66;;;4.44;96.60
10712;BME280;5407;51.234;6.804;2023-12-07T01:22:40;101441.13;;;4.27;97.27
10712;BME280;5407;51.234;6.804;2023-12-07T01:25:07;101446.78;;;4.26;97.35
10712;BME280;5407;51.234;6.804;2023-12-07T01:27:34;101447.97;;;4.38;97.94
10712;BME280;5407;51.234;6.804;2023-12-07T01:30:01;101448.84;;;4.33;98.34
10712;BME280;5407;51.234;6.804;2023-12-07T01:32:30;101444.31;;;4.29;98.11
10712;BME280;5407;51.234;6.804;2023-12-07T01:34:57;101447.47;;;4.36;97.75
10712;BME280;5407;51.234;6.804;2023-12-07T01:37:24;101444.78;;;4.36;97.61
10712;BME280;5407;51.234;6.804;2023-12-07T01:39:50;101446.00;;;4.20;97.91
10712;BME280;5407;51.234;6.804;2023-12-07T01:42:17;101447.81;;;4.29;97.70
10712;BME280;5407;51.234;6.804;2023-12-07T01:44:44;101447.84;;;4.25;97.32
10712;BME280;5407;51.234;6.804;2023-12-07T01:47:11;101448.72;;;4.15;96.88
10712;BME280;5407;51.234;6.804;2023-12-07T01:49:40;101454.41;;;4.04;97.51
10712;BME280;5407;51.234;6.804;2023-12-07T01:52:08;101451.75;;;4.04;98.16
10712;BME280;5407;51.234;6.804;2023-12-07T01:54:37;101451.78;;;3.99;98.77
10712;BME280;5407;51.234;6.804;2023-12-07T01:57:05;101455.66;;;4.16;98.49
10712;BME280;5407;51.234;6.804;2023-12-07T01:59:33;101465.44;;;4.30;98.54
10712;BME280;5407;51.234;6.804;2023-12-07T02:01:59;101465.13;;;4.32;98.50
10712;BME280;5407;51.234;6.804;2023-12-07T02:04:27;101469.34;;;4.38;98.28
10712;BME280;5407;51.234;6.804;2023-12-07T02:06:57;101469.03;;;4.44;97.17
10712;BME280;5407;51.234;6.804;2023-12-07T02:09:24;101470.88;;;4.49;97.63
10712;BME280;5407;51.234;6.804;2023-12-07T02:11:50;101472.22;;;4.46;97.66
10712;BME280;5407;51.234;6.804;2023-12-07T02:14:17;101469.34;;;4.38;97.34
10712;BME280;5407;51.234;6.804;2023-12-07T02:16:48;101473.34;;;4.40;98.09
10712;BME280;5407;51.234;6.804;2023-12-07T02:19:35;101476.28;;;4.39;98.96
10712;BME280;5407;51.234;6.804;2023-12-07T02:22:16;101479.28;;;4.61;98.87
10712;BME280;5407;51.234;6.804;2023-12-07T02:24:51;101483.50;;;4.67;98.46
10712;BME280;5407;51.234;6.804;2023-12-07T02:27:38;101482.72;;;4.66;97.84
10712;BME280;5407;51.234;6.804;2023-12-07T02:30:06;101494.50;;;4.60;98.28
10712;BME280;5407;51.234;6.804;2023-12-07T02:32:34;101487.25;;;4.66;98.16
10712;BME280;5407;51.234;6.804;2023-12-07T02:35:02;101486.19;;;4.67;98.39
10712;BME280;5407;51.234;6.804;2023-12-07T02:37:33;101492.28;;;4.72;98.64
10712;BME280;5407;51.234;6.804;2023-12-07T02:40:04;101495.47;;;4.74;98.69
10712;BME280;5407;51.234;6.804;2023-12-07T02:42:37;101490.91;;;4.75;98.24
10712;BME280;5407;51.234;6.804;2023-12-07T02:45:07;101498.19;;;4.69;98.02
10712;BME280;5407;51.234;6.804;2023-12-07T02:47:34;101503.19;;;4.76;98.12
10712;BME280;5407;51.234;6.804;2023-12-07T02:50:01;101500.00;;;4.74;97.49
10712;BME280;5407;51.234;6.804;2023-12-07T02:52:28;101487.72;;;4.73;97.46
10712;BME280;5407;51.234;6.804;2023-12-07T02:54:55;101491.41;;;4.77;97.26
10712;BME280;5407;51.234;6.804;2023-12-07T02:57:22;101479.69;;;4.73;97.34
10712;BME280;5407;51.234;6.804;2023-12-07T02:59:50;101475.78;;;4.65;98.11
10712;BME280;5407;51.234;6.804;2023-12-07T03:02:17;101472.31;;;4.65;98.28
10712;BME280;5407;51.234;6.804;2023-12-07T03:04:44;101471.22;;;4.66;98.24
10712;BME280;5407;51.234;6.804;2023-12-07T03:07:11;101478.16;;;4.67;98.38
10712;BME280;5407;51.234;6.804;2023-12-07T03:09:38;101466.91;;;4.70;98.20
10712;BME280;5407;51.234;6.804;2023-12-07T03:12:06;101468.50;;;4.71;98.27
10712;BME280;5407;51.234;6.804;2023-12-07T03:14:32;101474.19;;;4.64;98.47
10712;BME280;5407;51.234;6.804;2023-12-07T03:17:00;101463.44;;;4.69;97.95
10712;BME280;5407;51.234;6.804;2023-12-07T03:19:27;101469.56;;;4.70;98.21
10712;BME280;5407;51.234;6.804;2023-12-07T03:21:54;101468.59;;;4.61;98.18
10712;BME280;5407;51.234;6.804;2023-12-07T03:24:20;101463.50;;;4.64;98.54
10712;BME280;5407;51.234;6.804;2023-12-07T03:26:47;101466.50;;;4.58;98.65
10712;BME280;5407;51.234;6.804;2023-12-07T03:29:14;101464.91;;;4.57;99.64
10712;BME280;5407;51.234;6.804;2023-12-07T03:31:41;101465.19;;;4.55;99.59
10712;BME280;5407;51.234;6.804;2023-12-07T03:34:09;101456.88;;;4.57;99.89
10712;BME280;5407;51.234;6.804;2023-12-07T03:36:38;101464.91;;;4.57;99.57
10712;BME280;5407;51.234;6.804;2023-12-07T03:39:04;101461.09;;;4.63;99.23
10712;BME280;5407;51.234;6.804;2023-12-07T03:41:32;101466.44;;;4.63;99.74
10712;BME280;5407;51.234;6.804;2023-12-07T03:43:59;101459.81;;;4.55;100.00
10712;BME280;5407;51.234;6.804;2023-12-07T03:46:25;101460.91;;;4.54;100.00
10712;BME280;5407;51.234;6.804;2023-12-07T03:48:52;101470.72;;;4.64;100.00
10712;BME280;5407;51.234;6.804;2023-12-07T03:51:20;101467.97;;;4.69;100.00
10712;BME280;5407;51.234;6.804;2023-12-07T03:53:47;101467.34;;;4.77;100.00
10712;BME280;5407;51.234;6.804;2023-12-07T03:56:23;101470.50;;;4.84;100.00
10712;BME280;5407;51.234;6.804;2023-12-07T03:58:51;101469.13;;;4.86;100.00
10712;BME280;5407;51.234;6.804;2023-12-07T04:01:21;101476.00;;;4.92;100.00
10712;BME280;5407;51.234;6.804;2023-12-07T04:03:48;101468.88;;;4.88;100.00
10712;BME280;5407;51.234;6.804;2023-12-07T04:06:15;101468.13;;;4.82;100.00
10712;BME280;5407;51.234;6.804;2023-12-07T04:08:44;101466.72;;;4.90;100.00
10712;BME280;5407;51.234;6.804;2023-12-07T04:11:11;101463.72;;;4.91;100.00
10712;BME280;5407;51.234;6.804;2023-12-07T04:13:39;101469.31;;;4.95;100.00
10712;BME280;5407;51.234;6.804;2023-12-07T04:16:07;101465.56;;;4.96;99.99
10712;BME280;5407;51.234;6.804;2023-12-07T04:18:33;101463.97;;;4.95;100.00
10712;BME280;5407;51.234;6.804;2023-12-07T04:21:01;101468.75;;;4.98;100.00
10712;BME280;5407;51.234;6.804;2023-12-07T04:23:28;101475.44;;;4.95;100.00
10712;BME280;5407;51.234;6.804;2023-12-07T04:25:56;101474.66;;;4.95;100.00
10712;BME280;5407;51.234;6.804;2023-12-07T04:28:23;101469.75;;;5.02;100.00
10712;BME280;5407;51.234;6.804;2023-12-07T04:30:50;101474.66;;;4.95;100.00
10712;BME280;5407;51.234;6.804;2023-12-07T04:33:18;101478.13;;;4.95;100.00
10712;BME280;5407;51.234;6.804;2023-12-07T04:35:44;101485.81;;;5.02;100.00
10712;BME280;5407;51.234;6.804;2023-12-07T04:38:11;101481.47;;;5.06;100.00
10712;BME280;5407;51.234;6.804;2023-12-07T04:40:38;101484.16;;;5.06;100.00
10712;BME280;5407;51.234;6.804;2023-12-07T04:43:06;101486.09;;;5.00;100.00
10712;BME280;5407;51.234;6.804;2023-12-07T04:45:33;101479.31;;;5.08;100.00
10712;BME280;5407;51.234;6.804;2023-12-07T04:48:00;101488.47;;;5.02;100.00
10712;BME280;5407;51.234;6.804;2023-12-07T04:50:28;101493.19;;;5.10;100.00
10712;BME280;5407;51.234;6.804;2023-12-07T04:52:54;101498.50;;;5.15;100.00
10712;BME280;5407;51.234;6.804;2023-12-07T04:55:21;101492.06;;;5.16;100.00
10712;BME280;5407;51.234;6.804;2023-12-07T04:57:48;101486.44;;;5.17;100.00
10712;BME280;5407;51.234;6.804;2023-12-07T05:00:17;101503.56;;;5.16;100.00
10712;BME280;5407;51.234;6.804;2023-12-07T05:02:44;101501.16;;;5.15;100.00
10712;BME280;5407;51.234;6.804;2023-12-07T05:05:11;101496.84;;;5.19;100.00
10712;BME280;5407;51.234;6.804;2023-12-07T05:07:37;101500.09;;;5.16;100.00
10712;BME280;5407;51.234;6.804;2023-12-07T05:10:05;101505.50;;;5.11;100.00
10712;BME280;5407;51.234;6.804;2023-12-07T05:12:32;101517.16;;;5.20;100.00
10712;BME280;5407;51.234;6.804;2023-12-07T05:14:59;101512.66;;;5.15;100.00
10712;BME280;5407;51.234;6.804;2023-12-07T05:17:27;101512.31;;;5.22;100.00
10712;BME280;5407;51.234;6.804;2023-12-07T05:19:54;101516.88;;;5.21;100.00
10712;BME280;5407;51.234;6.804;2023-12-07T05:22:21;101513.38;;;5.21;100.00
10712;BME280;5407;51.234;6.804;2023-12-07T05:24:48;101505.59;;;5.24;100.00
10712;BME280;5407;51.234;6.804;2023-12-07T05:27:15;101504.22;;;5.27;100.00
10712;BME280;5407;51.234;6.804;2023-12-07T05:29:42;101513.56;;;5.29;100.00
10712;BME280;5407;51.234;6.804;2023-12-07T05:32:10;101520.28;;;5.27;100.00
10712;BME280;5407;51.234;6.804;2023-12-07T05:34:38;101526.19;;;5.24;100.00
10712;BME280;5407;51.234;6.804;2023-12-07T05:37:05;101528.94;;;5.19;100.00
10712;BME280;5407;51.234;6.804;2023-12-07T05:39:32;101525.63;;;5.27;100.00
10712;BME280;5407;51.234;6.804;2023-12-07T05:41:58;101513.78;;;5.33;100.00
10712;BME280;5407;51.234;6.804;2023-12-07T05:44:25;101507.25;;;5.44;100.00
10712;BME280;5407;51.234;6.804;2023-12-07T05:46:52;101507.56;;;5.37;100.00
10712;BME280;5407;51.234;6.804;2023-12-07T05:49:20;101506.72;;;5.42;100.00
10712;BME280;5407;51.234;6.804;2023-12-07T05:51:49;101493.94;;;5.39;100.00
10712;BME280;5407;51.234;6.804;2023-12-07T05:54:16;101492.47;;;5.46;100.00
10712;BME280;5407;51.234;6.804;2023-12-07T05:56:42;101494.13;;;5.42;100.00
10712;BME280;5407;51.234;6.804;2023-12-07T05:59:10;101501.97;;;5.39;100.00
10712;BME280;5407;51.234;6.804;2023-12-07T06:01:37;101503.88;;;5.33;100.00
10712;BME280;5407;51.234;6.804;2023-12-07T06:04:04;101498.81;;;5.32;100.00
10712;BME280;5407;51.234;6.804;2023-12-07T06:06:30;101487.03;;;5.33;100.00
10712;BME280;5407;51.234;6.804;2023-12-07T06:08:59;101487.25;;;5.36;100.00
10712;BME280;5407;51.234;6.804;2023-12-07T06:11:25;101489.00;;;5.46;100.00
10712;BME280;5407;51.234;6.804;2023-12-07T06:13:52;101490.25;;;5.35;100.00
10712;BME280;5407;51.234;6.804;2023-12-07T06:16:20;101481.66;;;5.33;100.00
10712;BME280;5407;51.234;6.804;2023-12-07T06:18:47;101488.66;;;5.34;100.00
10712;BME280;5407;51.234;6.804;2023-12-07T06:21:14;101483.56;;;5.32;100.00
10712;BME280;5407;51.234;6.804;2023-12-07T06:23:40;101481.03;;;5.22;100.00
10712;BME280;5407;51.234;6.804;2023-12-07T06:26:09;101476.81;;;5.16;100.00
10712;BME280;5407;51.234;6.804;2023-12-07T06:28:35;101478.91;;;5.19;100.00
10712;BME280;5407;51.234;6.804;2023-12-07T06:31:05;101471.09;;;5.23;100.00
10712;BME280;5407;51.234;6.804;2023-12-07T06:33:33;101469.88;;;5.15;100.00
10712;BME280;5407;51.234;6.804;2023-12-07T06:36:01;101469.06;;;5.15;100.00
10712;BME280;5407;51.234;6.804;2023-12-07T06:38:28;101470.91;;;5.19;100.00
10712;BME280;5407;51.234;6.804;2023-12-07T06:40:55;101475.50;;;5.14;100.00
10712;BME280;5407;51.234;6.804;2023-12-07T06:43:24;101472.25;;;5.17;100.00
10712;BME280;5407;51.234;6.804;2023-12-07T06:45:51;101471.28;;;5.08;100.00
10712;BME280;5407;51.234;6.804;2023-12-07T06:48:18;101473.28;;;4.97;100.00
10712;BME280;5407;51.234;6.804;2023-12-07T06:50:45;101467.59;;;5.04;100.00
10712;BME280;5407;51.234;6.804;2023-12-07T06:53:13;101468.19;;;5.01;100.00
10712;BME280;5407;51.234;6.804;2023-12-07T06:55:41;101474.88;;;4.98;100.00
10712;BME280;5407;51.234;6.804;2023-12-07T06:58:09;101479.44;;;4.98;100.00
10712;BME280;5407;51.234;6.804;2023-12-07T07:00:37;101474.66;;;4.95;100.00
10712;BME280;5407;51.234;6.804;2023-12-07T07:03:04;101476.78;;;4.98;100.00
10712;BME280;5407;51.234;6.804;2023-12-07T07:05:31;101474.38;;;4.96;100.00
10712;BME280;5407;51.234;6.804;2023-12-07T07:07:58;101470.66;;;4.92;100.00
10712;BME280;5407;51.234;6.804;2023-12-07T07:10:25;101472.50;;;4.97;100.00
10712;BME280;5407;51.234;6.804;2023-12-07T07:12:52;101470.66;;;4.92;100.00
10712;BME280;5407;51.234;6.804;2023-12-07T07:15:19;101479.44;;;4.98;100.00
10712;BME280;5407;51.234;6.804;2023-12-07T07:17:47;101471.94;;;5.00;100.00
10712;BME280;5407;51.234;6.804;2023-12-07T07:20:14;101477.59;;;4.93;100.00
10712;BME280;5407;51.234;6.804;2023-12-07T07:22:42;101479.00;;;4.91;100.00
10712;BME280;5407;51.234;6.804;2023-12-07T07:25:10;101479.03;;;4.86;100.00
10712;BME280;5407;51.234;6.804;2023-12-07T07:27:37;101464.06;;;4.85;100.00
10712;BME280;5407;51.234;6.804;2023-12-07T07:30:06;101467.34;;;4.77;100.00
10712;BME280;5407;51.234;6.804;2023-12-07T07:32:33;101464.97;;;4.75;100.00
10712;BME280;5407;51.234;6.804;2023-12-07T07:35:02;101464.75;;;4.72;100.00
10712;BME280;5407;51.234;6.804;2023-12-07T07:37:29;101471.16;;;4.71;100.00
10712;BME280;5407;51.234;6.804;2023-12-07T07:39:56;101471.22;;;4.66;100.00
10712;BME280;5407;51.234;6.804;2023-12-07T07:42:23;101479.25;;;4.66;100.00
10712;BME280;5407;51.234;6.804;2023-12-07T07:44:49;101486.19;;;4.67;100.00
10712;BME280;5407;51.234;6.804;2023-12-07T07:47:16;101481.13;;;4.65;100.00
10712;BME280;5407;51.234;6.804;2023-12-07T07:49:43;101477.91;;;4.68;100.00
10712;BME280;5407;51.234;6.804;2023-12-07T07:52:11;101477.59;;;4.70;100.00
10712;BME280;5407;51.234;6.804;2023-12-07T07:54:38;101472.66;;;4.82;100.00
10712;BME280;5407;51.234;6.804;2023-12-07T07:57:05;101468.31;;;4.62;99.71
10712;BME280;5407;51.234;6.804;2023-12-07T07:59:32;101474.34;;;4.73;99.91
10712;BME280;5407;51.234;6.804;2023-12-07T08:01:59;101469.97;;;4.82;100.00
10712;BME280;5407;51.234;6.804;2023-12-07T08:04:26;101472.72;;;4.77;99.19
10712;BME280;5407;51.234;6.804;2023-12-07T08:06:53;101477.06;;;4.68;99.13
10712;BME280;5407;51.234;6.804;2023-12-07T08:09:21;101482.53;;;4.58;99.57
10712;BME280;5407;51.234;6.804;2023-12-07T08:11:48;101484.53;;;4.71;99.15
10712;BME280;5407;51.234;6.804;2023-12-07T08:14:15;101489.41;;;4.64;99.41
10712;BME280;5407;51.234;6.804;2023-12-07T08:16:43;101487.34;;;4.56;99.12
10712;BME280;5407;51.234;6.804;2023-12-07T08:19:12;101489.09;;;4.70;99.19
10712;BME280;5407;51.234;6.804;2023-12-07T08:21:39;101488.59;;;4.63;98.69
10712;BME280;5407;51.234;6.804;2023-12-07T08:24:06;101485.56;;;4.75;98.68
10712;BME280;5407;51.234;6.804;2023-12-07T08:26:35;101488.78;;;4.72;98.66
10712;BME280;5407;51.234;6.804;2023-12-07T08:29:01;101491.41;;;4.77;98.42
10712;BME280;5407;51.234;6.804;2023-12-07T08:31:28;101491.16;;;4.78;97.80
10712;BME280;5407;51.234;6.804;2023-12-07T08:33:55;101492.94;;;4.83;97.38
10712;BME280;5407;51.234;6.804;2023-12-07T08:36:22;101495.34;;;4.84;97.14
10712;BME280;5407;51.234;6.804;2023-12-07T08:38:49;101486.72;;;4.92;96.70
10712;BME280;5407;51.234;6.804;2023-12-07T08:41:16;101491.94;;;5.02;95.94
10712;BME280;5407;51.234;6.804;2023-12-07T08:43:44;101499.19;;;5.02;95.52
10712;BME280;5407;51.234;6.804;2023-12-07T08:46:11;101508.22;;;5.06;95.15
10712;BME280;5407;51.234;6.804;2023-12-07T08:48:38;101504.00;;;5.23;94.56
10712;BME280;5407;51.234;6.804;2023-12-07T08:51:05;101499.84;;;5.36;93.78
10712;BME280;5407;51.234;6.804;2023-12-07T08:53:33;101504.13;;;5.37;93.44
10712;BME280;5407;51.234;6.804;2023-12-07T08:56:01;101498.25;;;5.35;92.16
10712;BME280;5407;51.234;6.804;2023-12-07T08:58:28;101493.28;;;5.47;91.64
10712;BME280;5407;51.234;6.804;2023-12-07T09:00:56;101494.44;;;5.77;89.87
10712;BME280;5407;51.234;6.804;2023-12-07T09:03:23;101500.66;;;5.78;89.07
10712;BME280;5407;51.234;6.804;2023-12-07T09:05:53;101495.13;;;6.06;87.67
10712;BME280;5407;51.234;6.804;2023-12-07T09:08:19;101495.94;;;5.88;87.39
10712;BME280;5407;51.234;6.804;2023-12-07T09:10:46;101505.38;;;6.36;85.55
10712;BME280;5407;51.234;6.804;2023-12-07T09:13:15;101508.53;;;6.84;82.22
10712;BME280;5407;51.234;6.804;2023-12-07T09:15:42;101501.28;;;6.71;82.03
10712;BME280;5407;51.234;6.804;2023-12-07T09:18:10;101500.13;;;6.90;80.43
10712;BME280;5407;51.234;6.804;2023-12-07T09:20:39;101498.63;;;7.11;78.23
10712;BME280;5407;51.234;6.804;2023-12-07T09:23:11;101495.56;;;7.44;77.47
10712;BME280;5407;51.234;6.804;2023-12-07T09:25:38;101487.00;;;6.89;78.62
10712;BME280;5407;51.234;6.804;2023-12-07T09:28:06;101488.72;;;7.25;77.81
10712;BME280;5407;51.234;6.804;2023-12-07T09:30:33;101489.34;;;7.57;75.52
10712;BME280;5407;51.234;6.804;2023-12-07T09:33:00;101490.03;;;7.63;75.78
10712;BME280;5407;51.234;6.804;2023-12-07T09:35:30;101496.16;;;7.01;77.09
10712;BME280;5407;51.234;6.804;2023-12-07T09:37:59;101504.59;;;7.08;77.76
10712;BME280;5407;51.234;6.804;2023-12-07T09:40:26;101498.66;;;6.98;77.94
10712;BME280;5407;51.234;6.804;2023-12-07T09:42:54;101499.41;;;6.85;78.97
10712;BME280;5407;51.234;6.804;2023-12-07T09:45:21;101491.97;;;6.95;78.74
10712;BME280;5407;51.234;6.804;2023-12-07T09:47:49;101500.81;;;7.09;78.23
10712;BME280;5407;51.234;6.804;2023-12-07T09:50:16;101498.03;;;7.27;76.98
10712;BME280;5407;51.234;6.804;2023-12-07T09:52:49;101492.94;;;8.46;71.64
10712;BME280;5407;51.234;6.804;2023-12-07T09:55:16;101484.66;;;9.50;66.94
10712;BME280;5407;51.234;6.804;2023-12-07T09:57:43;101477.34;;;8.86;67.78
10712;BME280;5407;51.234;6.804;2023-12-07T10:00:11;101476.34;;;8.22;70.65
10712;BME280;5407;51.234;6.804;2023-12-07T10:02:40;101474.94;;;8.11;71.42
10712;BME280;5407;51.234;6.804;2023-12-07T10:05:09;101464.94;;;7.81;72.23
10712;BME280;5407;51.234;6.804;2023-12-07T10:07:39;101474.84;;;8.16;70.96
10712;BME280;5407;51.234;6.804;2023-12-07T10:10:07;101481.09;;;9.16;67.29
10712;BME280;5407;51.234;6.804;2023-12-07T10:12:45;101473.50;;;9.18;65.60
10712;BME280;5407;51.234;6.804;2023-12-07T10:15:14;101475.66;;;10.31;61.46
10712;BME280;5407;51.234;6.804;2023-12-07T10:17:48;101461.03;;;8.83;64.04
10712;BME280;5407;51.234;6.804;2023-12-07T10:20:16;101455.00;;;8.47;65.97
10712;BME280;5407;51.234;6.804;2023-12-07T10:22:44;101459.88;;;8.45;67.94
10712;BME280;5407;51.234;6.804;2023-12-07T10:25:14;101455.41;;;7.97;68.72
10712;BME280;5407;51.234;6.804;2023-12-07T10:27:42;101451.75;;;8.37;67.44
10712;BME280;5407;51.234;6.804;2023-12-07T10:30:10;101449.94;;;8.24;66.43
10712;BME280;5407;51.234;6.804;2023-12-07T10:32:38;101445.16;;;7.99;68.01
10712;BME280;5407;51.234;6.804;2023-12-07T10:35:08;101438.19;;;7.76;69.52
10712;BME280;5407;51.234;6.804;2023-12-07T10:37:36;101437.53;;;7.57;71.34
10712;BME280;5407;51.234;6.804;2023-12-07T10:40:04;101439.97;;;7.45;71.92
10712;BME280;5407;51.234;6.804;2023-12-07T10:42:34;101423.34;;;6.94;72.95
10712;BME280;5407;51.234;6.804;2023-12-07T10:45:05;101410.41;;;6.69;74.63
10712;BME280;5407;51.234;6.804;2023-12-07T10:47:35;101412.00;;;6.57;76.12
10712;BME280;5407;51.234;6.804;2023-12-07T10:50:05;101414.97;;;6.55;76.35
10712;BME280;5407;51.234;6.804;2023-12-07T10:52:36;101407.44;;;6.57;77.29
10712;BME280;5407;51.234;6.804;2023-12-07T10:55:07;101405.13;;;6.37;77.52
10712;BME280;5407;51.234;6.804;2023-12-07T10:57:36;101391.94;;;6.68;76.96
10712;BME280;5407;51.234;6.804;2023-12-07T11:00:07;101396.34;;;6.77;76.07
10712;BME280;5407;51.234;6.804;2023-12-07T11:02:34;101383.38;;;6.93;74.70
10712;BME280;5407;51.234;6.804;2023-12-07T11:05:02;101378.84;;;6.66;75.24
10712;BME280;5407;51.234;6.804;2023-12-07T11:07:32;101382.97;;;7.26;73.32
10712;BME280;5407;51.234;6.804;2023-12-07T11:10:07;101368.66;;;7.17;72.59
10712;BME280;5407;51.234;6.804;2023-12-07T11:12:44;101375.41;;;7.50;71.87
10712;BME280;5407;51.234;6.804;2023-12-07T11:15:14;101360.75;;;7.34;71.88
10712;BME280;5407;51.234;6.804;2023-12-07T11:17:49;101354.94;;;7.76;70.34
10712;BME280;5407;51.234;6.804;2023-12-07T11:20:19;101355.13;;;7.22;71.29
10712;BME280;5407;51.234;6.804;2023-12-07T11:22:46;101367.28;;;7.06;73.15
10712;BME280;5407;51.234;6.804;2023-12-07T11:25:15;101350.97;;;7.95;69.63
10712;BME280;5407;51.234;6.804;2023-12-07T11:27:45;101351.88;;;10.01;61.96
10712;BME280;5407;51.234;6.804;2023-12-07T11:30:15;101352.94;;;10.83;57.76
10712;BME280;5407;51.234;6.804;2023-12-07T11:32:43;101347.88;;;11.31;56.00
10712;BME280;5407;51.234;6.804;2023-12-07T11:35:14;101344.78;;;10.71;56.48
10712;BME280;5407;51.234;6.804;2023-12-07T11:38:05;101331.63;;;10.32;57.25
10712;BME280;5407;51.234;6.804;2023-12-07T11:40:35;101330.63;;;11.23;55.62
10712;BME280;5407;51.234;6.804;2023-12-07T11:43:03;101329.78;;;12.76;49.82
10712;BME280;5407;51.234;6.804;2023-12-07T11:45:40;101322.38;;;12.05;50.71
10712;BME280;5407;51.234;6.804;2023-12-07T11:48:11;101326.19;;;11.92;51.41
10712;BME280;5407;51.234;6.804;2023-12-07T11:50:59;101313.69;;;11.87;51.77
10712;BME280;5407;51.234;6.804;2023-12-07T11:53:28;101307.81;;;11.33;53.54
10712;BME280;5407;51.234;6.804;2023-12-07T11:55:56;101303.41;;;11.81;52.96
10712;BME280;5407;51.234;6.804;2023-12-07T11:58:26;101307.16;;;11.36;51.91
10712;BME280;5407;51.234;6.804;2023-12-07T12:00:53;101304.94;;;11.38;52.43
10712;BME280;5407;51.234;6.804;2023-12-07T12:03:22;101299.28;;;11.95;50.96
10712;BME280;5407;51.234;6.804;2023-12-07T12:05:49;101303.16;;;12.66;49.65
10712;BME280;5407;51.234;6.804;2023-12-07T12:08:16;101296.38;;;12.96;48.74
10712;BME280;5407;51.234;6.804;2023-12-07T12:10:44;101310.63;;;12.33;49.53
10712;BME280;5407;51.234;6.804;2023-12-07T12:13:11;101307.50;;;11.87;50.62
10712;BME280;5407;51.234;6.804;2023-12-07T12:15:40;101304.06;;;11.66;51.05
10712;BME280;5407;51.234;6.804;2023-12-07T12:18:09;101305.97;;;12.10;50.69
10712;BME280;5407;51.234;6.804;2023-12-07T12:20:38;101302.25;;;12.14;51.29
10712;BME280;5407;51.234;6.804;2023-12-07T12:23:05;101293.53;;;11.97;49.82
10712;BME280;5407;51.234;6.804;2023-12-07T12:25:31;101298.44;;;10.69;54.07
10712;BME280;5407;51.234;6.804;2023-12-07T12:28:02;101286.44;;;10.58;55.42
10712;BME280;5407;51.234;6.804;2023-12-07T12:30:30;101287.75;;;10.52;55.18
10712;BME280;5407;51.234;6.804;2023-12-07T12:33:00;101277.59;;;9.57;57.99
10712;BME280;5407;51.234;6.804;2023-12-07T12:35:28;101267.81;;;9.10;60.03
10712;BME280;5407;51.234;6.804;2023-12-07T12:37:55;101260.69;;;9.14;60.94
10712;BME280;5407;51.234;6.804;2023-12-07T12:40:23;101257.41;;;9.72;58.58
10712;BME280;5407;51.234;6.804;2023-12-07T12:42:51;101255.09;;;9.53;58.95
10712;BME280;5407;51.234;6.804;2023-12-07T12:45:19;101246.56;;;9.26;59.57
10712;BME280;5407;51.234;6.804;2023-12-07T12:47:47;101240.19;;;8.46;61.81
10712;BME280;5407;51.234;6.804;2023-12-07T12:50:37;101237.22;;;8.47;63.03
10712;BME280;5407;51.234;6.804;2023-12-07T12:53:05;101229.94;;;8.09;64.47
10712;BME280;5407;51.234;6.804;2023-12-07T12:55:36;101220.56;;;7.98;65.73
10712;BME280;5407;51.234;6.804;2023-12-07T12:58:05;101215.03;;;8.33;63.78
10712;BME280;5407;51.234;6.804;2023-12-07T13:00:33;101215.72;;;8.64;63.68
10712;BME280;5407;51.234;6.804;2023-12-07T13:03:00;101216.03;;;8.63;63.00
10712;BME280;5407;51.234;6.804;2023-12-07T13:05:27;101212.56;;;8.06;65.27
10712;BME280;5407;51.234;6.804;2023-12-07T13:07:55;101212.84;;;8.05;66.36
10712;BME280;5407;51.234;6.804;2023-12-07T13:10:23;101215.75;;;7.78;67.31
10712;BME280;5407;51.234;6.804;2023-12-07T13:12:49;101208.97;;;7.50;68.34